sensor_id;sensor_type;location;lat;lon;timestamp;pressure;altitude;pressure_sealevel;temperature;humidity
9139;BME280;4604;48.616;9.548;2023-05-23T00:01:53;96724.50;;;15.96;100.00
9139;BME280;4604;48.616;9.548;2023-05-23T00:04:22;96728.94;;;16.03;100.00
9139;BME280;4604;48.616;9.548;2023-05-23T00:06:51;96729.44;;;16.07;100.00
9139;BME280;4604;48.616;9.548;2023-05-23T00:09:18;96723.53;;;16.12;100.00
9139;BME280;4604;48.616;9.548;2023-05-23T00:11:45;96731.00;;;16.16;100.00
9139;BME280;4604;48.616;9.548;2023-05-23T00:14:13;96718.16;;;16.20;100.00
9139;BME280;4604;48.616;9.548;2023-05-23T00:16:41;96730.31;;;16.37;100.00
9139;BME280;4604;48.616;9.548;2023-05-23T00:19:09;96742.56;;;16.46;100.00
9139;BME280;4604;48.616;9.548;2023-05-23T00:21:36;96739.38;;;16.51;100.00
9139;BME280;4604;48.616;9.548;2023-05-23T00:24:03;96740.19;;;16.52;100.00
9139;BME280;4604;48.616;9.548;2023-05-23T00:26:30;96740.19;;;16.52;100.00
9139;BME280;4604;48.616;9.548;2023-05-23T00:28:57;96741.66;;;16.54;100.00
9139;BME280;4604;48.616;9.548;2023-05-23T00:31:25;96744.22;;;16.62;100.00
9139;BME280;4604;48.616;9.548;2023-05-23T00:33:51;96743.69;;;16.67;100.00
9139;BME280;4604;48.616;9.548;2023-05-23T00:36:18;96745.81;;;16.72;100.00
9139;BME280;4604;48.616;9.548;2023-05-23T00:38:46;96747.66;;;16.71;100.00
9139;BME280;4604;48.616;9.548;2023-05-23T00:41:13;96741.44;;;16.79;100.00
9139;BME280;4604;48.616;9.548;2023-05-23T00:43:40;96744.56;;;16.82;100.00
9139;BME280;4604;48.616;9.548;2023-05-23T00:46:06;96748.34;;;16.88;100.00
9139;BME280;4604;48.616;9.548;2023-05-23T00:48:35;96742.47;;;16.93;100.00
9139;BME280;4604;48.616;9.548;2023-05-23T00:51:03;96753.56;;;16.96;100.00
9139;BME280;4604;48.616;9.548;2023-05-23T00:53:30;96752.22;;;17.00;100.00
9139;BME280;4604;48.616;9.548;2023-05-23T00:55:56;96742.81;;;17.04;100.00
9139;BME280;4604;48.616;9.548;2023-05-23T00:58:23;96747.31;;;17.04;100.00
9139;BME280;4604;48.616;9.548;2023-05-23T01:00:50;96752.75;;;17.10;100.00
9139;BME280;4604;48.616;9.548;2023-05-23T01:03:18;96754.66;;;17.17;100.00
9139;BME280;4604;48.616;9.548;2023-05-23T01:05:46;96756.34;;;17.18;100.00
9139;BME280;4604;48.616;9.548;2023-05-23T01:08:13;96752.84;;;17.17;100.00
9139;BME280;4604;48.616;9.548;2023-05-23T01:10:40;96753.13;;;17.22;100.00
9139;BME280;4604;48.616;9.548;2023-05-23T01:13:19;96745.28;;;17.21;100.00
9139;BME280;4604;48.616;9.548;2023-05-23T01:15:52;96757.91;;;17.27;100.00
9139;BME280;4604;48.616;9.548;2023-05-23T01:18:25;96747.56;;;17.24;100.00
9139;BME280;4604;48.616;9.548;2023-05-23T01:20:59;96756.16;;;17.19;100.00
9139;BME280;4604;48.616;9.548;2023-05-23T01:23:41;96756.34;;;17.18;100.00
9139;BME280;4604;48.616;9.548;2023-05-23T01:26:21;96748.31;;;17.32;100.00
9139;BME280;4604;48.616;9.548;2023-05-23T01:29:01;96753.28;;;17.36;100.00
9139;BME280;4604;48.616;9.548;2023-05-23T01:31:35;96750.25;;;17.24;100.00
9139;BME280;4604;48.616;9.548;2023-05-23T01:34:03;96754.50;;;17.18;100.00
9139;BME280;4604;48.616;9.548;2023-05-23T01:36:32;96754.31;;;17.20;100.00
9139;BME280;4604;48.616;9.548;2023-05-23T01:39:00;96750.84;;;17.19;100.00
9139;BME280;4604;48.616;9.548;2023-05-23T01:41:27;96756.78;;;17.21;100.00
9139;BME280;4604;48.616;9.548;2023-05-23T01:43:54;96752.31;;;17.22;100.00
9139;BME280;4604;48.616;9.548;2023-05-23T01:46:23;96753.56;;;17.26;100.00
9139;BME280;4604;48.616;9.548;2023-05-23T01:48:51;96745.66;;;17.18;100.00
9139;BME280;4604;48.616;9.548;2023-05-23T01:51:21;96750.34;;;17.16;100.00
9139;BME280;4604;48.616;9.548;2023-05-23T01:53:49;96762.31;;;17.20;100.00
9139;BME280;4604;48.616;9.548;2023-05-23T01:56:16;96750.25;;;17.09;100.00
9139;BME280;4604;48.616;9.548;2023-05-23T01:58:43;96757.72;;;17.14;100.00
9139;BME280;4604;48.616;9.548;2023-05-23T02:01:10;96753.56;;;17.11;100.00
9139;BME280;4604;48.616;9.548;2023-05-23T02:03:38;96757.34;;;17.17;100.00
9139;BME280;4604;48.616;9.548;2023-05-23T02:06:05;96752.59;;;17.12;100.00
9139;BME280;4604;48.616;9.548;2023-05-23T02:08:31;96767.66;;;17.05;100.00
9139;BME280;4604;48.616;9.548;2023-05-23T02:10:58;96769.19;;;16.99;100.00
9139;BME280;4604;48.616;9.548;2023-05-23T02:13:24;96759.00;;;17.03;100.00
9139;BME280;4604;48.616;9.548;2023-05-23T02:15:51;96771.59;;;16.94;100.00
9139;BME280;4604;48.616;9.548;2023-05-23T02:18:19;96772.06;;;16.98;100.00
9139;BME280;4604;48.616;9.548;2023-05-23T02:20:47;96769.19;;;16.99;100.00
9139;BME280;4604;48.616;9.548;2023-05-23T02:23:15;96766.75;;;16.98;100.00
9139;BME280;4604;48.616;9.548;2023-05-23T02:25:41;96776.00;;;17.02;100.00
9139;BME280;4604;48.616;9.548;2023-05-23T02:28:08;96770.22;;;16.98;100.00
9139;BME280;4604;48.616;9.548;2023-05-23T02:30:38;96768.47;;;17.05;100.00
9139;BME280;4604;48.616;9.548;2023-05-23T02:33:06;96764.88;;;16.98;100.00
9139;BME280;4604;48.616;9.548;2023-05-23T02:35:33;96762.97;;;17.07;100.00
9139;BME280;4604;48.616;9.548;2023-05-23T02:38:01;96762.31;;;17.05;100.00
9139;BME280;4604;48.616;9.548;2023-05-23T02:40:27;96768.66;;;17.04;100.00
9139;BME280;4604;48.616;9.548;2023-05-23T02:42:54;96762.78;;;17.08;100.00
9139;BME280;4604;48.616;9.548;2023-05-23T02:45:21;96765.91;;;17.12;100.00
9139;BME280;4604;48.616;9.548;2023-05-23T02:47:48;96759.72;;;17.11;100.00
9139;BME280;4604;48.616;9.548;2023-05-23T02:50:15;96756.72;;;17.15;100.00
9139;BME280;4604;48.616;9.548;2023-05-23T02:52:42;96760.00;;;17.17;100.00
9139;BME280;4604;48.616;9.548;2023-05-23T02:55:10;96768.00;;;17.17;100.00
9139;BME280;4604;48.616;9.548;2023-05-23T02:57:37;96749.72;;;17.14;100.00
9139;BME280;4604;48.616;9.548;2023-05-23T03:00:05;96760.22;;;17.15;100.00
9139;BME280;4604;48.616;9.548;2023-05-23T03:02:31;96757.16;;;17.03;100.00
9139;BME280;4604;48.616;9.548;2023-05-23T03:04:58;96760.31;;;17.07;100.00
9139;BME280;4604;48.616;9.548;2023-05-23T03:07:24;96759.94;;;17.10;100.00
9139;BME280;4604;48.616;9.548;2023-05-23T03:09:51;96755.16;;;17.05;100.00
9139;BME280;4604;48.616;9.548;2023-05-23T03:12:19;96752.38;;;17.14;100.00
9139;BME280;4604;48.616;9.548;2023-05-23T03:14:46;96743.72;;;17.11;100.00
9139;BME280;4604;48.616;9.548;2023-05-23T03:17:13;96756.34;;;17.18;100.00
9139;BME280;4604;48.616;9.548;2023-05-23T03:19:39;96756.50;;;17.16;100.00
9139;BME280;4604;48.616;9.548;2023-05-23T03:22:06;96764.25;;;17.11;100.00
9139;BME280;4604;48.616;9.548;2023-05-23T03:24:32;96762.50;;;17.03;100.00
9139;BME280;4604;48.616;9.548;2023-05-23T03:26:59;96769.84;;;17.01;100.00
9139;BME280;4604;48.616;9.548;2023-05-23T03:29:28;96773.66;;;17.07;100.00
9139;BME280;4604;48.616;9.548;2023-05-23T03:31:57;96762.78;;;17.08;100.00
9139;BME280;4604;48.616;9.548;2023-05-23T03:34:23;96770.06;;;17.00;100.00
9139;BME280;4604;48.616;9.548;2023-05-23T03:36:50;96781.25;;;16.95;100.00
9139;BME280;4604;48.616;9.548;2023-05-23T03:39:17;96773.06;;;16.82;100.00
9139;BME280;4604;48.616;9.548;2023-05-23T03:41:44;96772.75;;;16.77;100.00
9139;BME280;4604;48.616;9.548;2023-05-23T03:44:10;96782.09;;;16.73;100.00
9139;BME280;4604;48.616;9.548;2023-05-23T03:46:38;96774.09;;;16.58;100.00
9139;BME280;4604;48.616;9.548;2023-05-23T03:49:06;96784.28;;;16.54;100.00
9139;BME280;4604;48.616;9.548;2023-05-23T03:51:33;96791.91;;;16.57;100.00
9139;BME280;4604;48.616;9.548;2023-05-23T03:53:59;96788.13;;;16.52;100.00
9139;BME280;4604;48.616;9.548;2023-05-23T03:56:26;96788.06;;;16.60;100.00
9139;BME280;4604;48.616;9.548;2023-05-23T03:58:53;96798.50;;;16.46;100.00
9139;BME280;4604;48.616;9.548;2023-05-23T04:01:19;96796.66;;;16.47;100.00
9139;BME280;4604;48.616;9.548;2023-05-23T04:03:47;96799.03;;;16.42;100.00
9139;BME280;4604;48.616;9.548;2023-05-23T04:06:14;96800.50;;;16.44;100.00
9139;BME280;4604;48.616;9.548;2023-05-23T04:08:42;96801.22;;;16.38;100.00
9139;BME280;4604;48.616;9.548;2023-05-23T04:11:09;96794.09;;;16.39;100.00
9139;BME280;4604;48.616;9.548;2023-05-23T04:13:36;96789.94;;;16.36;100.00
9139;BME280;4604;48.616;9.548;2023-05-23T04:16:02;96793.22;;;16.38;100.00
9139;BME280;4604;48.616;9.548;2023-05-23T04:18:30;96799.41;;;16.39;100.00
9139;BME280;4604;48.616;9.548;2023-05-23T04:20:58;96794.63;;;16.34;100.00
9139;BME280;4604;48.616;9.548;2023-05-23T04:23:25;96788.81;;;16.31;100.00
9139;BME280;4604;48.616;9.548;2023-05-23T04:25:52;96789.28;;;16.34;100.00
9139;BME280;4604;48.616;9.548;2023-05-23T04:28:19;96792.28;;;16.31;100.00
9139;BME280;4604;48.616;9.548;2023-05-23T04:30:46;96786.44;;;16.36;100.00
9139;BME280;4604;48.616;9.548;2023-05-23T04:33:13;96795.47;;;16.50;100.00
9139;BME280;4604;48.616;9.548;2023-05-23T04:35:41;96798.16;;;16.50;100.00
9139;BME280;4604;48.616;9.548;2023-05-23T04:38:09;96797.03;;;16.44;100.00
9139;BME280;4604;48.616;9.548;2023-05-23T04:40:37;96797.56;;;16.39;100.00
9139;BME280;4604;48.616;9.548;2023-05-23T04:43:04;96796.38;;;16.42;100.00
9139;BME280;4604;48.616;9.548;2023-05-23T04:45:33;96799.03;;;16.42;100.00
9139;BME280;4604;48.616;9.548;2023-05-23T04:47:59;96805.91;;;16.36;100.00
9139;BME280;4604;48.616;9.548;2023-05-23T04:50:26;96800.09;;;16.33;100.00
9139;BME280;4604;48.616;9.548;2023-05-23T04:52:56;96785.84;;;16.25;100.00
9139;BME280;4604;48.616;9.548;2023-05-23T04:55:23;96792.84;;;16.26;100.00
9139;BME280;4604;48.616;9.548;2023-05-23T04:57:50;96800.19;;;16.24;100.00
9139;BME280;4604;48.616;9.548;2023-05-23T05:00:17;96797.69;;;16.23;100.00
9139;BME280;4604;48.616;9.548;2023-05-23T05:02:44;96803.97;;;16.30;100.00
9139;BME280;4604;48.616;9.548;2023-05-23T05:05:11;96799.09;;;16.34;100.00
9139;BME280;4604;48.616;9.548;2023-05-23T05:07:37;96809.75;;;16.34;100.00
9139;BME280;4604;48.616;9.548;2023-05-23T05:10:05;96811.94;;;16.30;100.00
9139;BME280;4604;48.616;9.548;2023-05-23T05:12:33;96810.59;;;16.34;100.00
9139;BME280;4604;48.616;9.548;2023-05-23T05:15:01;96812.47;;;16.25;100.00
9139;BME280;4604;48.616;9.548;2023-05-23T05:17:31;96817.97;;;16.24;100.00
9139;BME280;4604;48.616;9.548;2023-05-23T05:20:01;96821.66;;;16.23;100.00
9139;BME280;4604;48.616;9.548;2023-05-23T05:22:30;96820.47;;;16.25;100.00
9139;BME280;4604;48.616;9.548;2023-05-23T05:24:59;96828.47;;;16.25;100.00
9139;BME280;4604;48.616;9.548;2023-05-23T05:27:25;96824.31;;;16.23;100.00
9139;BME280;4604;48.616;9.548;2023-05-23T05:29:53;96827.13;;;16.21;100.00
9139;BME280;4604;48.616;9.548;2023-05-23T05:32:22;96830.13;;;16.26;100.00
9139;BME280;4604;48.616;9.548;2023-05-23T05:34:49;96832.38;;;16.15;100.00
9139;BME280;4604;48.616;9.548;2023-05-23T05:37:16;96829.88;;;16.13;100.00
9139;BME280;4604;48.616;9.548;2023-05-23T05:39:42;96828.88;;;16.14;100.00
9139;BME280;4604;48.616;9.548;2023-05-23T05:42:09;96833.72;;;16.11;100.00
9139;BME280;4604;48.616;9.548;2023-05-23T05:44:36;96834.84;;;16.16;100.00
9139;BME280;4604;48.616;9.548;2023-05-23T05:47:06;96828.97;;;16.21;100.00
9139;BME280;4604;48.616;9.548;2023-05-23T05:49:32;96836.50;;;16.17;100.00
9139;BME280;4604;48.616;9.548;2023-05-23T05:51:59;96844.28;;;16.27;100.00
9139;BME280;4604;48.616;9.548;2023-05-23T05:54:26;96848.53;;;16.36;100.00
9139;BME280;4604;48.616;9.548;2023-05-23T05:56:53;96846.22;;;16.33;100.00
9139;BME280;4604;48.616;9.548;2023-05-23T05:59:20;96848.72;;;16.35;100.00
9139;BME280;4604;48.616;9.548;2023-05-23T06:01:50;96849.06;;;16.32;100.00
9139;BME280;4604;48.616;9.548;2023-05-23T06:04:18;96846.41;;;16.32;100.00
9139;BME280;4604;48.616;9.548;2023-05-23T06:06:45;96840.88;;;16.33;100.00
9139;BME280;4604;48.616;9.548;2023-05-23T06:09:11;96840.22;;;16.31;100.00
9139;BME280;4604;48.616;9.548;2023-05-23T06:11:38;96851.72;;;16.32;100.00
9139;BME280;4604;48.616;9.548;2023-05-23T06:14:05;96845.88;;;16.36;100.00
9139;BME280;4604;48.616;9.548;2023-05-23T06:16:31;96847.69;;;16.36;100.00
9139;BME280;4604;48.616;9.548;2023-05-23T06:18:59;96846.88;;;16.35;100.00
9139;BME280;4604;48.616;9.548;2023-05-23T06:21:27;96845.31;;;16.41;100.00
9139;BME280;4604;48.616;9.548;2023-05-23T06:23:53;96850.19;;;16.37;100.00
9139;BME280;4604;48.616;9.548;2023-05-23T06:26:20;96851.50;;;16.41;100.00
9139;BME280;4604;48.616;9.548;2023-05-23T06:28:47;96855.50;;;16.37;100.00
9139;BME280;4604;48.616;9.548;2023-05-23T06:31:14;96846.34;;;16.40;100.00
9139;BME280;4604;48.616;9.548;2023-05-23T06:33:40;96852.25;;;16.50;100.00
9139;BME280;4604;48.616;9.548;2023-05-23T06:36:10;96855.44;;;16.45;100.00
9139;BME280;4604;48.616;9.548;2023-05-23T06:38:38;96858.06;;;16.54;100.00
9139;BME280;4604;48.616;9.548;2023-05-23T06:41:05;96857.69;;;16.57;100.00
9139;BME280;4604;48.616;9.548;2023-05-23T06:43:32;96863.31;;;16.62;100.00
9139;BME280;4604;48.616;9.548;2023-05-23T06:45:59;96859.59;;;16.71;100.00
9139;BME280;4604;48.616;9.548;2023-05-23T06:48:29;96862.41;;;16.69;100.00
9139;BME280;4604;48.616;9.548;2023-05-23T06:50:56;96859.53;;;16.79;100.00
9139;BME280;4604;48.616;9.548;2023-05-23T06:53:22;96853.78;;;16.67;100.00
9139;BME280;4604;48.616;9.548;2023-05-23T06:55:51;96863.38;;;16.77;100.00
9139;BME280;4604;48.616;9.548;2023-05-23T06:58:18;96872.88;;;16.79;100.00
9139;BME280;4604;48.616;9.548;2023-05-23T07:00:45;96872.16;;;16.85;100.00
9139;BME280;4604;48.616;9.548;2023-05-23T07:03:11;96873.69;;;16.80;100.00
9139;BME280;4604;48.616;9.548;2023-05-23T07:05:38;96873.72;;;16.72;100.00
9139;BME280;4604;48.616;9.548;2023-05-23T07:08:05;96871.97;;;16.64;100.00
9139;BME280;4604;48.616;9.548;2023-05-23T07:10:31;96878.25;;;16.71;100.00
9139;BME280;4604;48.616;9.548;2023-05-23T07:13:03;96884.53;;;16.78;100.00
9139;BME280;4604;48.616;9.548;2023-05-23T07:15:32;96887.13;;;16.86;100.00
9139;BME280;4604;48.616;9.548;2023-05-23T07:17:58;96885.56;;;16.92;100.00
9139;BME280;4604;48.616;9.548;2023-05-23T07:20:25;96888.56;;;16.97;100.00
9139;BME280;4604;48.616;9.548;2023-05-23T07:22:55;96895.25;;;16.93;100.00
9139;BME280;4604;48.616;9.548;2023-05-23T07:25:24;96886.88;;;16.96;100.00
9139;BME280;4604;48.616;9.548;2023-05-23T07:27:54;96898.03;;;17.00;100.00
9139;BME280;4604;48.616;9.548;2023-05-23T07:30:22;96879.81;;;17.03;100.00
9139;BME280;4604;48.616;9.548;2023-05-23T07:32:51;96885.81;;;17.05;100.00
9139;BME280;4604;48.616;9.548;2023-05-23T07:35:19;96884.03;;;16.98;100.00
9139;BME280;4604;48.616;9.548;2023-05-23T07:37:50;96894.63;;;17.06;100.00
9139;BME280;4604;48.616;9.548;2023-05-23T07:40:17;96888.94;;;17.09;100.00
9139;BME280;4604;48.616;9.548;2023-05-23T07:42:44;96895.09;;;17.09;100.00
9139;BME280;4604;48.616;9.548;2023-05-23T07:45:11;96887.63;;;16.90;100.00
9139;BME280;4604;48.616;9.548;2023-05-23T07:47:39;96901.97;;;17.04;100.00
9139;BME280;4604;48.616;9.548;2023-05-23T07:50:07;96899.22;;;16.97;100.00
9139;BME280;4604;48.616;9.548;2023-05-23T07:52:34;96905.91;;;16.93;100.00
9139;BME280;4604;48.616;9.548;2023-05-23T07:55:01;96900.00;;;16.83;100.00
9139;BME280;4604;48.616;9.548;2023-05-23T07:57:28;96904.53;;;16.74;100.00
9139;BME280;4604;48.616;9.548;2023-05-23T07:59:57;96910.22;;;16.71;100.00
9139;BME280;4604;48.616;9.548;2023-05-23T08:02:24;96901.03;;;16.74;100.00
9139;BME280;4604;48.616;9.548;2023-05-23T08:04:52;96900.94;;;16.90;100.00
9139;BME280;4604;48.616;9.548;2023-05-23T08:07:19;96906.31;;;16.82;100.00
9139;BME280;4604;48.616;9.548;2023-05-23T08:09:46;96911.50;;;16.83;100.00
9139;BME280;4604;48.616;9.548;2023-05-23T08:12:22;96913.50;;;16.81;100.00
9139;BME280;4604;48.616;9.548;2023-05-23T08:14:49;96910.84;;;16.81;100.00
9139;BME280;4604;48.616;9.548;2023-05-23T08:17:18;96926.47;;;16.84;100.00
9139;BME280;4604;48.616;9.548;2023-05-23T08:19:45;96909.34;;;16.79;100.00
9139;BME280;4604;48.616;9.548;2023-05-23T08:22:13;96921.19;;;16.99;100.00
9139;BME280;4604;48.616;9.548;2023-05-23T08:24:42;96909.94;;;16.89;100.00
9139;BME280;4604;48.616;9.548;2023-05-23T08:27:11;96925.69;;;16.76;100.00
9139;BME280;4604;48.616;9.548;2023-05-23T08:29:41;96912.09;;;16.62;100.00
9139;BME280;4604;48.616;9.548;2023-05-23T08:32:12;96933.78;;;16.59;100.00
9139;BME280;4604;48.616;9.548;2023-05-23T08:34:39;96932.75;;;16.60;100.00
9139;BME280;4604;48.616;9.548;2023-05-23T08:37:06;96936.38;;;16.67;100.00
9139;BME280;4604;48.616;9.548;2023-05-23T08:39:34;96929.56;;;16.65;100.00
9139;BME280;4604;48.616;9.548;2023-05-23T08:42:01;96935.31;;;16.77;100.00
9139;BME280;4604;48.616;9.548;2023-05-23T08:44:27;96942.66;;;16.83;100.00
9139;BME280;4604;48.616;9.548;2023-05-23T08:46:54;96944.97;;;16.86;100.00
9139;BME280;4604;48.616;9.548;2023-05-23T08:49:22;96943.47;;;16.75;100.00
9139;BME280;4604;48.616;9.548;2023-05-23T08:51:53;96946.88;;;16.69;100.00
9139;BME280;4604;48.616;9.548;2023-05-23T08:54:26;96949.09;;;16.65;100.00
9139;BME280;4604;48.616;9.548;2023-05-23T08:59:40;96959.09;;;16.86;100.00
9139;BME280;4604;48.616;9.548;2023-05-23T09:02:09;96951.47;;;16.83;100.00
9139;BME280;4604;48.616;9.548;2023-05-23T09:04:37;96960.66;;;16.81;100.00
9139;BME280;4604;48.616;9.548;2023-05-23T09:07:05;96962.72;;;16.94;100.00
9139;BME280;4604;48.616;9.548;2023-05-23T09:09:35;96952.59;;;16.89;100.00
9139;BME280;4604;48.616;9.548;2023-05-23T09:12:03;96956.28;;;16.88;100.00
9139;BME280;4604;48.616;9.548;2023-05-23T09:14:30;96963.84;;;16.99;100.00
9139;BME280;4604;48.616;9.548;2023-05-23T09:17:00;96971.97;;;16.75;100.00
9139;BME280;4604;48.616;9.548;2023-05-23T09:19:30;96974.53;;;16.68;100.00
9139;BME280;4604;48.616;9.548;2023-05-23T09:22:01;96971.91;;;16.60;100.00
9139;BME280;4604;48.616;9.548;2023-05-23T09:24:33;96981.63;;;16.53;100.00
9139;BME280;4604;48.616;9.548;2023-05-23T09:27:05;96966.81;;;16.50;100.00
9139;BME280;4604;48.616;9.548;2023-05-23T09:29:36;96978.63;;;16.56;100.00
9139;BME280;4604;48.616;9.548;2023-05-23T09:32:09;96977.31;;;16.52;100.00
9139;BME280;4604;48.616;9.548;2023-05-23T09:34:39;96980.94;;;16.51;100.00
9139;BME280;4604;48.616;9.548;2023-05-23T09:37:06;96980.88;;;16.36;100.00
9139;BME280;4604;48.616;9.548;2023-05-23T09:39:36;96982.25;;;16.32;100.00
9139;BME280;4604;48.616;9.548;2023-05-23T09:42:07;96988.53;;;16.39;100.00
9139;BME280;4604;48.616;9.548;2023-05-23T09:44:40;96987.88;;;16.37;100.00
9139;BME280;4604;48.616;9.548;2023-05-23T09:47:07;96990.00;;;16.41;100.00
9139;BME280;4604;48.616;9.548;2023-05-23T09:49:33;97001.28;;;16.52;100.00
9139;BME280;4604;48.616;9.548;2023-05-23T09:52:00;96997.81;;;16.43;100.00
9139;BME280;4604;48.616;9.548;2023-05-23T09:54:27;96996.16;;;16.42;100.00
9139;BME280;4604;48.616;9.548;2023-05-23T09:56:53;96990.84;;;16.42;100.00
9139;BME280;4604;48.616;9.548;2023-05-23T09:59:24;96997.66;;;16.44;100.00
9139;BME280;4604;48.616;9.548;2023-05-23T10:01:55;96993.84;;;16.39;100.00
9139;BME280;4604;48.616;9.548;2023-05-23T10:04:25;96995.16;;;16.43;100.00
9139;BME280;4604;48.616;9.548;2023-05-23T10:06:57;97006.53;;;16.37;100.00
9139;BME280;4604;48.616;9.548;2023-05-23T10:09:25;97004.94;;;16.19;100.00
9139;BME280;4604;48.616;9.548;2023-05-23T10:15:12;97006.72;;;16.27;100.00
9139;BME280;4604;48.616;9.548;2023-05-23T10:17:59;97002.44;;;16.18;100.00
9139;BME280;4604;48.616;9.548;2023-05-23T10:20:29;97002.53;;;16.33;100.00
9139;BME280;4604;48.616;9.548;2023-05-23T10:22:58;96999.75;;;16.57;100.00
9139;BME280;4604;48.616;9.548;2023-05-23T10:25:26;97010.44;;;16.49;100.00
9139;BME280;4604;48.616;9.548;2023-05-23T10:27:55;97012.06;;;16.58;100.00
9139;BME280;4604;48.616;9.548;2023-05-23T10:30:28;97009.28;;;16.52;100.00
9139;BME280;4604;48.616;9.548;2023-05-23T10:32:55;96998.47;;;16.45;100.00
9139;BME280;4604;48.616;9.548;2023-05-23T10:35:37;96995.97;;;16.43;100.00
9139;BME280;4604;48.616;9.548;2023-05-23T10:38:10;97010.69;;;16.62;100.00
9139;BME280;4604;48.616;9.548;2023-05-23T10:40:45;97004.78;;;16.75;100.00
9139;BME280;4604;48.616;9.548;2023-05-23T10:43:19;97011.97;;;16.83;100.00
9139;BME280;4604;48.616;9.548;2023-05-23T10:45:49;97013.00;;;16.97;100.00
9139;BME280;4604;48.616;9.548;2023-05-23T10:48:21;97010.97;;;17.07;100.00
9139;BME280;4604;48.616;9.548;2023-05-23T10:51:01;97001.75;;;17.32;100.00
9139;BME280;4604;48.616;9.548;2023-05-23T10:53:31;97012.72;;;17.38;99.80
9139;BME280;4604;48.616;9.548;2023-05-23T10:55:57;97002.19;;;17.59;98.83
9139;BME280;4604;48.616;9.548;2023-05-23T10:58:24;97007.16;;;17.77;95.44
9139;BME280;4604;48.616;9.548;2023-05-23T11:00:59;97000.34;;;17.74;94.93
9139;BME280;4604;48.616;9.548;2023-05-23T11:03:30;97000.41;;;17.51;96.36
9139;BME280;4604;48.616;9.548;2023-05-23T11:05:58;97007.38;;;17.75;96.38
9139;BME280;4604;48.616;9.548;2023-05-23T11:08:32;97003.44;;;17.86;94.58
9139;BME280;4604;48.616;9.548;2023-05-23T11:11:03;97001.31;;;18.11;93.43
9139;BME280;4604;48.616;9.548;2023-05-23T11:13:56;97006.38;;;18.06;92.32
9139;BME280;4604;48.616;9.548;2023-05-23T11:16:29;97006.94;;;18.16;92.54
9139;BME280;4604;48.616;9.548;2023-05-23T11:19:23;97006.84;;;18.10;90.66
9139;BME280;4604;48.616;9.548;2023-05-23T11:21:53;97009.09;;;18.57;89.16
9139;BME280;4604;48.616;9.548;2023-05-23T11:24:20;97004.34;;;18.38;86.18
9139;BME280;4604;48.616;9.548;2023-05-23T11:26:54;96997.22;;;18.45;87.21
9139;BME280;4604;48.616;9.548;2023-05-23T11:29:25;97002.56;;;18.45;87.08
9139;BME280;4604;48.616;9.548;2023-05-23T11:31:54;96993.63;;;18.53;85.54
9139;BME280;4604;48.616;9.548;2023-05-23T11:34:24;96998.91;;;18.68;85.16
9139;BME280;4604;48.616;9.548;2023-05-23T11:36:54;97003.34;;;18.24;85.74
9139;BME280;4604;48.616;9.548;2023-05-23T11:39:21;97003.03;;;18.49;85.95
9139;BME280;4604;48.616;9.548;2023-05-23T11:42:01;96998.00;;;18.39;86.45
9139;BME280;4604;48.616;9.548;2023-05-23T11:44:34;96991.63;;;18.40;85.11
9139;BME280;4604;48.616;9.548;2023-05-23T11:47:05;97000.53;;;18.47;83.94
9139;BME280;4604;48.616;9.548;2023-05-23T11:49:43;96988.97;;;18.76;84.14
9139;BME280;4604;48.616;9.548;2023-05-23T11:52:12;97010.25;;;18.85;82.19
9139;BME280;4604;48.616;9.548;2023-05-23T11:54:45;96998.84;;;18.76;82.69
9139;BME280;4604;48.616;9.548;2023-05-23T11:57:18;96999.44;;;18.56;83.20
9139;BME280;4604;48.616;9.548;2023-05-23T11:59:45;96992.97;;;18.66;82.63
9139;BME280;4604;48.616;9.548;2023-05-23T12:02:15;96993.56;;;18.68;82.34
9139;BME280;4604;48.616;9.548;2023-05-23T12:04:42;96994.34;;;18.61;82.83
9139;BME280;4604;48.616;9.548;2023-05-23T12:07:08;96996.00;;;18.63;81.73
9139;BME280;4604;48.616;9.548;2023-05-23T12:09:46;97010.00;;;18.65;80.19
9139;BME280;4604;48.616;9.548;2023-05-23T12:12:13;97010.59;;;18.45;78.49
9139;BME280;4604;48.616;9.548;2023-05-23T12:14:43;96990.50;;;18.49;78.43
9139;BME280;4604;48.616;9.548;2023-05-23T12:17:12;96992.50;;;18.62;75.54
9139;BME280;4604;48.616;9.548;2023-05-23T12:19:39;96993.56;;;18.68;78.14
9139;BME280;4604;48.616;9.548;2023-05-23T12:22:21;96977.41;;;19.12;74.77
9139;BME280;4604;48.616;9.548;2023-05-23T12:24:59;96990.59;;;18.92;75.57
9139;BME280;4604;48.616;9.548;2023-05-23T12:27:28;96987.28;;;19.12;75.89
9139;BME280;4604;48.616;9.548;2023-05-23T12:30:15;96988.53;;;18.94;76.93
9139;BME280;4604;48.616;9.548;2023-05-23T12:32:44;96992.19;;;18.87;76.42
9139;BME280;4604;48.616;9.548;2023-05-23T12:35:12;96988.06;;;18.69;76.05
9139;BME280;4604;48.616;9.548;2023-05-23T12:37:40;96986.31;;;18.76;76.35
9139;BME280;4604;48.616;9.548;2023-05-23T12:40:12;96982.59;;;18.77;75.36
9139;BME280;4604;48.616;9.548;2023-05-23T12:42:48;96979.44;;;18.89;73.99
9139;BME280;4604;48.616;9.548;2023-05-23T12:45:16;96983.47;;;18.78;74.04
9139;BME280;4604;48.616;9.548;2023-05-23T12:47:44;96980.50;;;18.73;73.06
9139;BME280;4604;48.616;9.548;2023-05-23T12:50:10;96978.94;;;19.00;72.88
9139;BME280;4604;48.616;9.548;2023-05-23T12:52:37;96983.16;;;18.73;73.55
9139;BME280;4604;48.616;9.548;2023-05-23T12:55:05;96987.31;;;18.75;73.04
9139;BME280;4604;48.616;9.548;2023-05-23T12:57:33;96980.84;;;18.70;71.82
9139;BME280;4604;48.616;9.548;2023-05-23T13:00:00;96979.66;;;18.72;72.26
9139;BME280;4604;48.616;9.548;2023-05-23T13:02:27;96985.69;;;18.96;71.81
9139;BME280;4604;48.616;9.548;2023-05-23T13:04:55;96986.66;;;18.88;70.25
9139;BME280;4604;48.616;9.548;2023-05-23T13:07:22;96976.03;;;18.58;70.00
9139;BME280;4604;48.616;9.548;2023-05-23T13:09:50;96992.88;;;18.59;71.38
9139;BME280;4604;48.616;9.548;2023-05-23T13:12:17;96991.53;;;18.70;72.54
9139;BME280;4604;48.616;9.548;2023-05-23T13:14:44;96985.25;;;18.56;71.80
9139;BME280;4604;48.616;9.548;2023-05-23T13:17:13;96992.09;;;18.65;71.24
9139;BME280;4604;48.616;9.548;2023-05-23T13:19:40;96996.91;;;18.70;72.39
9139;BME280;4604;48.616;9.548;2023-05-23T13:22:11;96994.22;;;18.70;72.03
9139;BME280;4604;48.616;9.548;2023-05-23T13:24:38;96991.66;;;18.76;72.57
9139;BME280;4604;48.616;9.548;2023-05-23T13:27:05;96996.63;;;18.79;72.42